createdAt,value
2019-04-14T00:00:27.254Z,4.39
2019-04-14T00:01:28.297Z,4.31
2019-04-14T00:02:29.336Z,4.29
2019-04-14T00:03:30.381Z,4.28
2019-04-14T00:04:31.662Z,4.28
2019-04-14T00:05:33.976Z,4.29
2019-04-14T00:06:35.086Z,4.46
2019-04-14T00:07:36.323Z,4.34
2019-04-14T00:08:37.221Z,4.31
2019-04-14T00:09:38.472Z,4.29
2019-04-14T00:10:40.013Z,4.35
2019-04-14T00:11:41.201Z,4.36
2019-04-14T00:12:42.706Z,4.29
2019-04-14T00:13:43.933Z,4.38
2019-04-14T00:14:45.317Z,4.38
2019-04-14T00:15:49.058Z,4.43
2019-04-14T00:16:48.832Z,4.42
2019-04-14T00:17:50.337Z,4.39
2019-04-14T00:18:51.243Z,4.38
2019-04-14T00:19:52.412Z,4.28
2019-04-14T00:20:53.494Z,4.49
2019-04-14T00:21:54.740Z,4.32
2019-04-14T00:22:56.150Z,4.47
2019-04-14T00:23:58.732Z,4.44
2019-04-14T00:24:59.644Z,4.46
2019-04-14T00:26:00.810Z,4.44
2019-04-14T00:27:02.034Z,4.42
2019-04-14T00:28:03.009Z,4.43
2019-04-14T00:29:04.599Z,4.47
2019-04-14T00:30:05.606Z,4.44
2019-04-14T00:31:06.972Z,4.46
2019-04-14T00:32:09.439Z,4.43
2019-04-14T00:33:10.538Z,4.31
2019-04-14T00:34:11.367Z,4.46
2019-04-14T00:35:12.493Z,4.47
2019-04-14T00:36:13.737Z,4.43
2019-04-14T00:37:16.255Z,4.43
2019-04-14T00:38:17.431Z,4.42
2019-04-14T00:39:18.312Z,4.35
2019-04-14T00:40:19.326Z,4.46
2019-04-14T00:41:32.581Z,4.26
2019-04-14T00:42:21.831Z,4.44
2019-04-14T00:43:24.252Z,4.29
2019-04-14T00:44:25.417Z,4.34
2019-04-14T00:45:33.950Z,4.29
2019-04-14T00:46:27.604Z,4.32
2019-04-14T00:47:28.929Z,4.29
2019-04-14T00:48:30.006Z,4.29
2019-04-14T00:49:31.340Z,4.36
2019-04-14T00:50:32.734Z,4.32
2019-04-14T00:51:36.361Z,4.31
2019-04-14T00:52:35.422Z,4.32
2019-04-14T00:53:36.808Z,4.29
2019-04-14T00:54:39.236Z,4.34
2019-04-14T00:55:40.101Z,4.29
2019-04-14T00:56:41.120Z,4.29
2019-04-14T00:57:42.214Z,4.35
2019-04-14T00:58:43.598Z,4.31
2019-04-14T00:59:46.254Z,4.31
2019-04-14T01:00:47.337Z,4.35
2019-04-14T01:01:48.338Z,4.26
2019-04-14T01:02:49.367Z,4.28
2019-04-14T01:03:50.500Z,4.32
2019-04-14T01:04:51.701Z,4.29
2019-04-14T01:05:53.104Z,4.31
2019-04-14T01:06:55.402Z,4.32
2019-04-14T01:07:56.531Z,4.34
2019-04-14T01:08:57.554Z,4.28
2019-04-14T01:09:59.574Z,4.31
2019-04-14T01:11:00.892Z,4.29
2019-04-14T01:12:01.802Z,4.31
2019-04-14T01:13:02.773Z,4.28
2019-04-14T01:14:03.891Z,4.26
2019-04-14T01:15:05.282Z,4.31
2019-04-14T01:16:13.274Z,4.24
2019-04-14T01:17:08.980Z,4.26
2019-04-14T01:18:09.960Z,4.16
2019-04-14T01:19:11.265Z,4.14
2019-04-14T01:20:12.521Z,4.18
2019-04-14T01:21:13.388Z,4.16
2019-04-14T01:22:14.795Z,4.14
2019-04-14T01:23:17.087Z,4.07
2019-04-14T01:24:18.463Z,4.07
2019-04-14T01:25:19.356Z,4.07
2019-04-14T01:26:20.345Z,4.06
2019-04-14T01:27:21.528Z,4.10
2019-04-14T01:28:22.907Z,4.13
2019-04-14T01:29:25.425Z,4.08
2019-04-14T01:30:26.274Z,4.11
2019-04-14T01:31:27.369Z,4.10
2019-04-14T01:32:28.392Z,4.13
2019-04-14T01:33:29.723Z,4.10
2019-04-14T01:34:32.317Z,4.16
2019-04-14T01:35:33.436Z,4.16
2019-04-14T01:36:34.402Z,4.13
2019-04-14T01:37:35.420Z,4.21
2019-04-14T01:38:36.489Z,4.18
2019-04-14T01:39:37.892Z,4.13
2019-04-14T01:40:40.222Z,4.16
2019-04-14T01:41:41.057Z,4.06
2019-04-14T01:42:42.080Z,4.13
2019-04-14T01:43:43.288Z,4.13
2019-04-14T01:44:45.755Z,4.16
2019-04-14T01:45:58.199Z,4.14
2019-04-14T01:46:47.795Z,4.14
2019-04-14T01:47:48.955Z,4.20
2019-04-14T01:48:50.062Z,4.11
2019-04-14T01:49:51.449Z,4.14
2019-04-14T01:50:53.818Z,4.24
2019-04-14T01:51:54.855Z,4.10
2019-04-14T01:52:56.715Z,4.16
2019-04-14T01:53:57.477Z,4.13
2019-04-14T01:54:58.274Z,4.07
2019-04-14T01:55:59.537Z,4.18
2019-04-14T01:57:00.920Z,4.10
2019-04-14T01:58:03.234Z,4.10
2019-04-14T01:59:04.368Z,4.14
2019-04-14T02:00:05.388Z,4.14
2019-04-14T02:01:06.336Z,4.06
2019-04-14T02:02:07.720Z,4.13
2019-04-14T02:03:09.110Z,4.13
2019-04-14T02:04:11.622Z,4.17
2019-04-14T02:05:12.394Z,4.14
2019-04-14T02:06:13.615Z,4.17
2019-04-14T02:07:14.576Z,4.11
2019-04-14T02:08:15.905Z,4.14
2019-04-14T02:09:18.558Z,4.14
2019-04-14T02:10:19.389Z,4.07
2019-04-14T02:11:20.587Z,4.17
2019-04-14T02:12:21.440Z,4.18
2019-04-14T02:13:22.672Z,4.17
2019-04-14T02:14:24.050Z,4.16
2019-04-14T02:15:26.548Z,4.16
2019-04-14T02:16:36.279Z,4.11
2019-04-14T02:17:28.518Z,4.17
2019-04-14T02:18:29.660Z,4.13
2019-04-14T02:19:30.804Z,4.17
2019-04-14T02:20:32.182Z,4.11
2019-04-14T02:21:34.444Z,4.10
2019-04-14T02:22:35.560Z,4.07
2019-04-14T02:23:36.618Z,4.06
2019-04-14T02:24:37.601Z,4.04
2019-04-14T02:25:38.991Z,4.04
2019-04-14T02:26:41.509Z,4.06
2019-04-14T02:27:42.659Z,4.13
2019-04-14T02:28:43.811Z,4.04
2019-04-14T02:29:45.065Z,4.02
2019-04-14T02:30:52.375Z,4.07
2019-04-14T02:32:23.695Z,4.06
2019-04-14T02:33:13.843Z,4.02
2019-04-14T02:34:16.525Z,4.02
2019-04-14T02:35:22.739Z,4.04
2019-04-14T02:36:21.717Z,4.04
2019-04-14T02:37:19.222Z,3.92
2019-04-14T02:38:40.887Z,3.95
2019-04-14T02:39:29.351Z,3.93
2019-04-14T02:40:34.823Z,3.98
2019-04-14T02:41:29.646Z,3.90
2019-04-14T02:42:39.553Z,3.92
2019-04-14T02:43:29.371Z,3.93
2019-04-14T02:44:33.644Z,3.84
2019-04-14T02:45:35.548Z,3.92
2019-04-14T02:46:38.208Z,3.80
2019-04-14T02:48:44.537Z,3.88
2019-04-14T02:49:44.264Z,3.86
2019-04-14T02:50:59.615Z,3.89
2019-04-14T02:52:45.925Z,3.93
2019-04-14T02:54:07.171Z,3.86
2019-04-14T02:55:49.160Z,3.96
2019-04-14T02:57:01.886Z,3.92
2019-04-14T02:57:45.365Z,3.80
2019-04-14T02:58:53.817Z,3.86
2019-04-14T02:59:49.707Z,3.95
2019-04-14T03:01:01.830Z,3.93
2019-04-14T03:02:09.622Z,3.93
2019-04-14T03:02:49.797Z,4.00
2019-04-14T03:04:57.167Z,3.98
2019-04-14T03:05:57.878Z,3.90
2019-04-14T03:07:05.337Z,4.02
2019-04-14T03:08:11.245Z,3.93
2019-04-14T03:09:12.597Z,3.88
2019-04-14T03:10:05.233Z,4.00
2019-04-14T03:12:11.414Z,3.95
2019-04-14T03:13:13.060Z,3.96
2019-04-14T03:15:19.418Z,3.84
2019-04-14T03:17:25.375Z,3.89
2019-04-14T03:18:31.455Z,3.96
2019-04-14T03:19:27.576Z,3.96
2019-04-14T03:20:30.186Z,3.92
2019-04-14T03:21:36.373Z,4.04
2019-04-14T03:22:28.957Z,3.93
2019-04-14T03:23:34.825Z,3.93
2019-04-14T03:24:29.040Z,3.95
2019-04-14T03:25:16.686Z,3.95
2019-04-14T03:26:29.467Z,3.96
2019-04-14T03:27:41.896Z,3.96
2019-04-14T03:29:55.403Z,3.96
2019-04-14T03:31:04.099Z,3.86
2019-04-14T03:34:11.179Z,3.84
2019-04-14T03:34:50.054Z,3.86
2019-04-14T03:36:05.318Z,3.80
2019-04-14T03:37:53.982Z,4.02
2019-04-14T03:38:54.887Z,3.86
2019-04-14T03:39:51.425Z,3.88
2019-04-14T03:40:49.173Z,3.86
2019-04-14T03:41:52.794Z,3.88
2019-04-14T03:42:57.292Z,3.81
2019-04-14T03:43:46.365Z,3.92
2019-04-14T03:44:58.331Z,3.88
2019-04-14T03:47:11.014Z,3.89
2019-04-14T03:51:13.538Z,3.93
2019-04-14T03:52:02.482Z,3.90
2019-04-14T03:54:03.106Z,3.99
2019-04-14T03:55:01.541Z,3.89
2019-04-14T03:55:54.438Z,3.98
2019-04-14T03:56:48.930Z,3.92
2019-04-14T03:57:50.061Z,3.96
2019-04-14T03:58:51.445Z,3.88
2019-04-14T03:59:53.963Z,3.86
2019-04-14T04:00:55.322Z,3.84
2019-04-14T04:01:56.444Z,3.90
2019-04-14T04:02:57.614Z,3.81
2019-04-14T04:03:58.560Z,3.86
2019-04-14T04:04:59.869Z,3.84
2019-04-14T04:06:00.922Z,3.92
2019-04-14T04:07:02.302Z,3.92
2019-04-14T04:08:04.775Z,3.90
2019-04-14T04:09:06.140Z,3.84
2019-04-14T04:10:07.105Z,3.89
2019-04-14T04:11:08.329Z,3.88
2019-04-14T04:12:09.611Z,3.88
2019-04-14T04:13:10.552Z,3.86
2019-04-14T04:14:11.847Z,3.89
2019-04-14T04:15:13.188Z,3.88
2019-04-14T04:16:15.803Z,3.89
2019-04-14T04:17:16.803Z,3.93
2019-04-14T04:18:17.761Z,3.92
2019-04-14T04:19:19.778Z,3.92
2019-04-14T04:20:19.947Z,3.96
2019-04-14T04:21:21.342Z,3.88
2019-04-14T04:22:23.632Z,3.90
2019-04-14T04:23:24.786Z,3.89
2019-04-14T04:24:27.761Z,3.93
2019-04-14T04:25:26.850Z,3.90
2019-04-14T04:26:28.083Z,3.84
2019-04-14T04:27:29.461Z,3.96
2019-04-14T04:28:31.882Z,3.89
2019-04-14T04:29:33.027Z,3.89
2019-04-14T04:30:34.055Z,3.98
2019-04-14T04:31:35.046Z,3.92
2019-04-14T04:32:36.298Z,3.98
2019-04-14T04:33:37.676Z,3.95
2019-04-14T04:34:40.160Z,4.06
2019-04-14T04:35:41.430Z,4.04
2019-04-14T04:36:42.046Z,4.06
2019-04-14T04:37:43.351Z,4.06
2019-04-14T04:38:44.493Z,4.08
2019-04-14T04:39:45.870Z,4.06
2019-04-14T04:40:48.462Z,4.11
2019-04-14T04:41:49.321Z,4.10
2019-04-14T04:42:50.502Z,4.07
2019-04-14T04:43:51.807Z,4.13
2019-04-14T04:44:53.292Z,4.07
2019-04-14T04:45:54.035Z,4.07
2019-04-14T04:46:55.415Z,4.08
2019-04-14T04:47:57.690Z,4.00
2019-04-14T04:49:07.312Z,4.07
2019-04-14T04:50:00.013Z,4.11
2019-04-14T04:51:00.879Z,4.07
2019-04-14T04:52:02.311Z,4.06
2019-04-14T04:53:04.826Z,4.07
2019-04-14T04:54:05.967Z,4.04
2019-04-14T04:55:06.743Z,4.10
2019-04-14T04:56:07.984Z,4.10
2019-04-14T04:57:09.081Z,4.10
2019-04-14T04:58:10.473Z,4.14
2019-04-14T04:59:12.596Z,4.14
2019-04-14T05:00:13.444Z,4.18
2019-04-14T05:01:14.563Z,4.25
2019-04-14T05:02:15.939Z,4.28
2019-04-14T05:03:17.364Z,4.20
2019-04-14T05:04:19.824Z,4.25
2019-04-14T05:05:20.990Z,4.13
2019-04-14T05:06:23.312Z,4.10
2019-04-14T05:07:23.143Z,4.28
2019-04-14T05:08:24.220Z,4.26
2019-04-14T05:09:25.518Z,4.20
2019-04-14T05:10:26.908Z,4.11
2019-04-14T05:11:29.412Z,4.21
2019-04-14T05:12:30.608Z,4.31
2019-04-14T05:13:31.350Z,4.16
2019-04-14T05:14:32.648Z,4.10
2019-04-14T05:15:33.707Z,4.17
2019-04-14T05:16:35.093Z,4.16
2019-04-14T05:17:36.685Z,4.13
2019-04-14T05:18:37.874Z,4.10
2019-04-14T05:19:40.200Z,4.16
2019-04-14T05:20:40.563Z,4.10
2019-04-14T05:21:43.017Z,4.20
2019-04-14T05:22:43.932Z,4.26
2019-04-14T05:23:45.244Z,4.25
2019-04-14T05:24:46.126Z,4.29
2019-04-14T05:25:47.507Z,4.32
2019-04-14T05:26:48.697Z,4.39
2019-04-14T05:27:50.096Z,4.42
2019-04-14T05:28:52.664Z,4.44
2019-04-14T05:29:53.591Z,4.42
2019-04-14T05:30:54.717Z,4.42
2019-04-14T05:31:55.593Z,4.49
2019-04-14T05:32:56.910Z,4.43
2019-04-14T05:33:58.296Z,4.44
2019-04-14T05:35:00.783Z,4.43
2019-04-14T05:36:02.098Z,4.57
2019-04-14T05:37:02.893Z,4.54
2019-04-14T05:38:04.060Z,4.49
2019-04-14T05:39:05.114Z,4.50
2019-04-14T05:40:06.493Z,4.43
2019-04-14T05:41:09.011Z,4.46
2019-04-14T05:42:14.889Z,4.47
2019-04-14T05:43:11.306Z,4.51
2019-04-14T05:44:12.128Z,4.46
2019-04-14T05:45:13.406Z,4.50
2019-04-14T05:46:14.681Z,4.62
2019-04-14T05:47:16.057Z,4.57
2019-04-14T05:48:18.154Z,4.67
2019-04-14T05:49:28.636Z,4.69
2019-04-14T05:50:20.307Z,4.75
2019-04-14T05:51:23.158Z,4.80
2019-04-14T05:52:23.010Z,4.88
2019-04-14T05:53:24.200Z,4.84
2019-04-14T05:54:25.596Z,4.97
2019-04-14T05:55:26.974Z,4.87
2019-04-14T05:56:29.533Z,4.96
2019-04-14T05:57:30.512Z,4.91
2019-04-14T05:58:31.699Z,4.99
2019-04-14T05:59:32.922Z,4.99
2019-04-14T06:00:34.213Z,4.93
2019-04-14T06:01:35.116Z,5.01
2019-04-14T06:02:37.633Z,5.02
2019-04-14T06:03:38.533Z,4.99
2019-04-14T06:04:39.638Z,5.02
2019-04-14T06:05:40.549Z,4.88
2019-04-14T06:06:41.962Z,4.91
2019-04-14T06:07:43.348Z,4.96
2019-04-14T06:08:44.747Z,4.83
2019-04-14T06:09:46.130Z,4.90
2019-04-14T06:10:47.514Z,4.93
2019-04-14T06:11:48.912Z,4.88
2019-04-14T06:12:50.295Z,4.88
2019-04-14T06:13:51.691Z,4.84
2019-04-14T06:14:53.083Z,4.79
2019-04-14T06:15:54.472Z,4.77
2019-04-14T06:16:55.896Z,4.77
2019-04-14T06:17:57.277Z,4.80
2019-04-14T06:18:58.673Z,4.71
2019-04-14T06:20:00.067Z,4.79
2019-04-14T06:21:01.461Z,4.80
2019-04-14T06:22:02.846Z,4.68
2019-04-14T06:23:04.237Z,4.77
2019-04-14T06:24:05.622Z,4.67
2019-04-14T06:25:07.026Z,4.77
2019-04-14T06:26:08.420Z,4.79
2019-04-14T06:27:09.808Z,4.72
2019-04-14T06:28:11.204Z,4.75
2019-04-14T06:29:12.604Z,4.80
2019-04-14T06:30:14.001Z,4.68
2019-04-14T06:31:15.399Z,4.68
2019-04-14T06:32:16.774Z,4.67
2019-04-14T06:33:18.172Z,4.74
2019-04-14T06:34:19.564Z,4.75
2019-04-14T06:35:20.953Z,4.69
2019-04-14T06:36:22.349Z,4.67
2019-04-14T06:37:23.747Z,4.71
2019-04-14T06:38:25.139Z,4.72
2019-04-14T06:39:26.525Z,4.71
2019-04-14T06:40:27.928Z,4.64
2019-04-14T06:41:29.312Z,4.68
2019-04-14T06:42:30.717Z,4.71
2019-04-14T06:43:32.101Z,4.75
2019-04-14T06:44:33.495Z,4.74
2019-04-14T06:45:34.876Z,4.65
2019-04-14T06:46:36.291Z,4.69
2019-04-14T06:47:37.680Z,4.69
2019-04-14T06:48:39.080Z,4.79
2019-04-14T06:49:48.979Z,4.79
2019-04-14T06:50:41.820Z,4.84
2019-04-14T06:51:43.208Z,4.87
2019-04-14T06:52:44.592Z,4.90
2019-04-14T06:53:45.978Z,4.94
2019-04-14T06:54:47.371Z,4.96
2019-04-14T06:55:48.766Z,4.93
2019-04-14T06:56:50.168Z,4.90
2019-04-14T06:57:51.556Z,4.87
2019-04-14T06:58:52.949Z,5.01
2019-04-14T06:59:54.334Z,4.99
2019-04-14T07:00:55.725Z,4.96
2019-04-14T07:01:59.370Z,4.99
2019-04-14T07:02:58.462Z,5.02
2019-04-14T07:03:59.848Z,4.97
2019-04-14T07:05:01.267Z,5.01
2019-04-14T07:06:02.637Z,4.96
2019-04-14T07:07:04.038Z,5.04
2019-04-14T07:08:05.441Z,4.96
2019-04-14T07:09:06.831Z,4.93
2019-04-14T07:10:08.217Z,4.91
2019-04-14T07:11:09.625Z,4.86
2019-04-14T07:12:11.140Z,4.83
2019-04-14T07:13:13.956Z,4.93
2019-04-14T07:14:13.754Z,4.93
2019-04-14T07:15:15.147Z,4.96
2019-04-14T07:16:16.530Z,5.02
2019-04-14T07:17:17.929Z,5.01
2019-04-14T07:18:19.313Z,5.02
2019-04-14T07:19:20.711Z,4.97
2019-04-14T07:20:22.104Z,4.97
2019-04-14T07:21:23.494Z,5.02
2019-04-14T07:22:24.887Z,5.14
2019-04-14T07:23:26.284Z,5.11
2019-04-14T07:24:27.677Z,5.20
2019-04-14T07:25:29.057Z,5.09
2019-04-14T07:26:30.438Z,5.14
2019-04-14T07:27:31.832Z,5.04
2019-04-14T07:28:33.214Z,5.11
2019-04-14T07:29:34.794Z,5.17
2019-04-14T07:30:36.152Z,5.12
2019-04-14T07:31:37.542Z,5.15
2019-04-14T07:32:38.926Z,5.22
2019-04-14T07:33:40.321Z,5.22
2019-04-14T07:34:41.723Z,5.24
2019-04-14T07:35:43.117Z,5.24
2019-04-14T07:36:44.509Z,5.30
2019-04-14T07:37:47.216Z,5.42
2019-04-14T07:38:48.615Z,5.45
2019-04-14T07:39:50.115Z,5.45
2019-04-14T07:40:51.503Z,5.60
2019-04-14T07:41:52.911Z,5.59
2019-04-14T07:42:54.321Z,5.63
2019-04-14T07:43:55.704Z,5.58
2019-04-14T07:44:57.667Z,5.59
2019-04-14T07:45:59.066Z,5.63
2019-04-14T07:47:00.451Z,5.69
2019-04-14T07:48:01.836Z,5.78
2019-04-14T07:49:03.230Z,5.70
2019-04-14T07:50:14.034Z,5.80
2019-04-14T07:51:05.979Z,5.80
2019-04-14T07:52:07.371Z,5.65
2019-04-14T07:53:08.756Z,5.63
2019-04-14T07:54:10.157Z,5.69
2019-04-14T07:55:11.539Z,5.80
2019-04-14T07:56:12.932Z,5.85
2019-04-14T07:57:14.323Z,5.78
2019-04-14T07:58:15.721Z,5.83
2019-04-14T07:59:17.116Z,5.90
2019-04-14T08:00:18.512Z,5.83
2019-04-14T08:01:19.904Z,5.83
2019-04-14T08:02:21.291Z,5.96
2019-04-14T08:03:22.679Z,5.96
2019-04-14T08:04:24.061Z,6.05
2019-04-14T08:05:25.456Z,5.96
2019-04-14T08:06:26.847Z,5.93
2019-04-14T08:07:28.752Z,5.92
2019-04-14T08:08:30.146Z,6.01
2019-04-14T08:09:31.522Z,5.98
2019-04-14T08:10:32.904Z,6.16
2019-04-14T08:11:34.298Z,6.28
2019-04-14T08:12:35.712Z,6.39
2019-04-14T08:13:37.107Z,6.40
2019-04-14T08:14:38.496Z,6.40
2019-04-14T08:15:39.889Z,6.45
2019-04-14T08:16:41.289Z,6.60
2019-04-14T08:17:43.637Z,6.60
2019-04-14T08:18:44.041Z,6.50
2019-04-14T08:19:45.420Z,6.51
2019-04-14T08:20:46.811Z,6.55
2019-04-14T08:21:48.210Z,6.55
2019-04-14T08:22:49.610Z,6.54
2019-04-14T08:23:51.008Z,6.63
2019-04-14T08:24:52.397Z,6.69
2019-04-14T08:25:53.788Z,6.68
2019-04-14T08:26:55.173Z,6.69
2019-04-14T08:27:56.568Z,6.71
2019-04-14T08:28:57.977Z,6.76
2019-04-14T08:29:59.381Z,6.78
2019-04-14T08:31:00.787Z,6.76
2019-04-14T08:32:02.231Z,6.78
2019-04-14T08:33:03.573Z,6.83
2019-04-14T08:34:04.963Z,6.78
2019-04-14T08:35:06.372Z,6.82
2019-04-14T08:36:07.765Z,6.71
2019-04-14T08:37:09.179Z,6.55
2019-04-14T08:38:10.566Z,6.63
2019-04-14T08:39:11.969Z,6.57
2019-04-14T08:40:13.358Z,6.58
2019-04-14T08:41:14.756Z,6.54
2019-04-14T08:42:16.146Z,6.53
2019-04-14T08:43:17.539Z,6.42
2019-04-14T08:44:18.951Z,6.46
2019-04-14T08:45:20.328Z,6.43
2019-04-14T08:46:21.745Z,6.42
2019-04-14T08:47:23.137Z,6.32
2019-04-14T08:48:24.529Z,6.25
2019-04-14T08:49:25.923Z,6.25
2019-04-14T08:50:38.700Z,6.27
2019-04-14T08:51:28.664Z,6.38
2019-04-14T08:52:30.052Z,6.48
2019-04-14T08:53:31.441Z,6.39
2019-04-14T08:54:32.888Z,6.38
2019-04-14T08:55:34.234Z,6.45
2019-04-14T08:56:35.624Z,6.42
2019-04-14T08:57:37.025Z,6.53
2019-04-14T08:58:38.413Z,6.55
2019-04-14T08:59:39.801Z,6.60
2019-04-14T09:00:41.186Z,6.55
2019-04-14T09:01:42.570Z,6.71
2019-04-14T09:02:43.959Z,6.65
2019-04-14T09:03:45.338Z,6.79
2019-04-14T09:04:46.740Z,6.97
2019-04-14T09:05:48.125Z,7.16
2019-04-14T09:06:49.508Z,7.29
2019-04-14T09:07:50.899Z,7.39
2019-04-14T09:08:52.285Z,7.42
2019-04-14T09:09:53.668Z,7.51
2019-04-14T09:10:55.068Z,7.57
2019-04-14T09:11:56.458Z,7.63
2019-04-14T09:12:57.860Z,7.79
2019-04-14T09:13:59.241Z,7.86
2019-04-14T09:15:00.641Z,7.84
2019-04-14T09:16:02.038Z,7.95
2019-04-14T09:17:03.434Z,7.81
2019-04-14T09:18:04.825Z,7.85
2019-04-14T09:19:07.819Z,7.95
2019-04-14T09:20:07.584Z,7.77
2019-04-14T09:21:08.981Z,7.79
2019-04-14T09:22:10.367Z,7.84
2019-04-14T09:23:11.758Z,7.77
2019-04-14T09:24:13.146Z,7.70
2019-04-14T09:25:14.539Z,7.62
2019-04-14T09:26:15.939Z,7.60
2019-04-14T09:27:17.327Z,7.45
2019-04-14T09:28:18.720Z,7.48
2019-04-14T09:29:20.122Z,7.58
2019-04-14T09:30:21.503Z,7.60
2019-04-14T09:31:22.897Z,7.58
2019-04-14T09:32:24.279Z,7.54
2019-04-14T09:33:25.685Z,7.48
2019-04-14T09:34:27.076Z,7.48
2019-04-14T09:35:28.475Z,7.58
2019-04-14T09:36:29.863Z,7.48
2019-04-14T09:37:31.296Z,7.48
2019-04-14T09:38:32.684Z,7.48
2019-04-14T09:39:34.075Z,7.48
2019-04-14T09:40:35.466Z,7.51
2019-04-14T09:41:36.868Z,7.52
2019-04-14T09:42:38.279Z,7.42
2019-04-14T09:43:39.645Z,7.45
2019-04-14T09:44:41.033Z,7.44
2019-04-14T09:45:42.425Z,7.42
2019-04-14T09:46:43.818Z,7.54
2019-04-14T09:47:45.215Z,7.57
2019-04-14T09:48:46.603Z,7.45
2019-04-14T09:49:47.996Z,7.57
2019-04-14T09:50:49.384Z,7.50
2019-04-14T09:51:50.786Z,7.54
2019-04-14T09:52:52.189Z,7.51
2019-04-14T09:53:53.589Z,7.54
2019-04-14T09:54:54.984Z,7.50
2019-04-14T09:55:56.372Z,7.51
2019-04-14T09:56:57.763Z,7.47
2019-04-14T09:57:59.153Z,7.54
2019-04-14T09:59:00.541Z,7.57
2019-04-14T10:00:01.931Z,7.54
2019-04-14T10:01:03.323Z,7.55
2019-04-14T10:02:04.711Z,7.50
2019-04-14T10:03:06.111Z,7.58
2019-04-14T10:04:07.510Z,7.69
2019-04-14T10:05:08.904Z,7.66
2019-04-14T10:06:10.306Z,7.71
2019-04-14T10:07:11.691Z,7.74
2019-04-14T10:08:13.091Z,7.81
2019-04-14T10:09:14.446Z,7.84
2019-04-14T10:10:15.846Z,7.86
2019-04-14T10:11:17.255Z,7.84
2019-04-14T10:12:18.655Z,7.94
2019-04-14T10:13:20.038Z,8.00
2019-04-14T10:14:21.437Z,7.94
2019-04-14T10:15:22.819Z,7.99
2019-04-14T10:16:24.216Z,8.07
2019-04-14T10:17:25.600Z,7.92
2019-04-14T10:18:26.989Z,8.00
2019-04-14T10:19:28.392Z,8.03
2019-04-14T10:20:29.779Z,8.06
2019-04-14T10:21:31.164Z,8.13
2019-04-14T10:22:34.272Z,8.14
2019-04-14T10:23:33.919Z,8.27
2019-04-14T10:24:35.307Z,8.31
2019-04-14T10:25:36.707Z,8.42
2019-04-14T10:26:38.102Z,8.47
2019-04-14T10:27:39.496Z,8.57
2019-04-14T10:28:40.898Z,8.49
2019-04-14T10:29:42.319Z,8.42
2019-04-14T10:30:43.706Z,8.29
2019-04-14T10:31:45.110Z,8.50
2019-04-14T10:32:46.507Z,8.45
2019-04-14T10:33:47.917Z,8.50
2019-04-14T10:34:49.321Z,8.54
2019-04-14T10:35:50.713Z,8.40
2019-04-14T10:36:52.117Z,8.57
2019-04-14T10:37:53.515Z,8.64
2019-04-14T10:38:54.928Z,8.75
2019-04-14T10:39:56.324Z,8.89
2019-04-14T10:40:57.720Z,8.75
2019-04-14T10:41:59.114Z,8.93
2019-04-14T10:43:00.531Z,8.89
2019-04-14T10:44:01.925Z,9.01
2019-04-14T10:45:03.330Z,8.98
2019-04-14T10:46:04.721Z,9.03
2019-04-14T10:47:06.129Z,9.03
2019-04-14T10:48:07.523Z,9.17
2019-04-14T10:49:08.917Z,9.27
2019-04-14T10:50:10.317Z,9.19
2019-04-14T10:51:11.712Z,9.20
2019-04-14T10:52:13.093Z,9.22
2019-04-14T10:53:14.495Z,9.13
2019-04-14T10:54:15.890Z,9.06
2019-04-14T10:55:17.281Z,9.03
2019-04-14T10:56:18.669Z,9.00
2019-04-14T10:57:20.069Z,8.98
2019-04-14T10:58:21.478Z,9.00
2019-04-14T10:59:22.867Z,8.97
2019-04-14T11:00:24.266Z,8.88
2019-04-14T11:01:25.659Z,8.91
2019-04-14T11:02:27.065Z,9.00
2019-04-14T11:03:28.467Z,9.03
2019-04-14T11:04:29.860Z,9.13
2019-04-14T11:05:31.250Z,9.19
2019-04-14T11:06:32.659Z,9.27
2019-04-14T11:07:34.064Z,9.59
2019-04-14T11:08:35.474Z,9.65
2019-04-14T11:09:36.875Z,9.73
2019-04-14T11:10:38.268Z,9.73
2019-04-14T11:11:40.213Z,9.88
2019-04-14T11:12:41.610Z,9.93
2019-04-14T11:13:43.001Z,9.89
2019-04-14T11:14:44.407Z,9.74
2019-04-14T11:15:45.804Z,9.68
2019-04-14T11:16:47.199Z,9.62
2019-04-14T11:17:48.600Z,9.65
2019-04-14T11:18:49.990Z,9.75
2019-04-14T11:19:51.397Z,9.83
2019-04-14T11:20:52.797Z,10.07
2019-04-14T11:21:54.203Z,10.07
2019-04-14T11:23:03.307Z,10.18
2019-04-14T11:23:56.960Z,10.28
2019-04-14T11:24:58.363Z,10.38
2019-04-14T11:25:59.765Z,10.34
2019-04-14T11:27:01.180Z,10.38
2019-04-14T11:28:02.587Z,10.43
2019-04-14T11:29:04.005Z,10.51
2019-04-14T11:30:05.401Z,10.55
2019-04-14T11:31:06.792Z,10.57
2019-04-14T11:32:08.216Z,10.52
2019-04-14T11:33:09.627Z,10.34
2019-04-14T11:34:11.016Z,10.28
2019-04-14T11:35:12.459Z,10.26
2019-04-14T11:36:13.842Z,10.16
2019-04-14T11:37:15.257Z,10.09
2019-04-14T11:38:16.654Z,10.20
2019-04-14T11:39:18.082Z,10.24
2019-04-14T11:40:19.478Z,10.28
2019-04-14T11:41:20.886Z,10.32
2019-04-14T11:42:22.283Z,10.46
2019-04-14T11:43:23.684Z,10.47
2019-04-14T11:44:25.082Z,10.52
2019-04-14T11:45:26.500Z,10.66
2019-04-14T11:46:27.868Z,10.76
2019-04-14T11:47:29.279Z,10.84
2019-04-14T11:48:30.661Z,10.80
2019-04-14T11:49:32.112Z,10.78
2019-04-14T11:50:33.500Z,10.66
2019-04-14T11:51:34.916Z,10.49
2019-04-14T11:52:36.340Z,10.58
2019-04-14T11:53:37.742Z,10.54
2019-04-14T11:54:39.149Z,10.69
2019-04-14T11:55:40.573Z,10.76
2019-04-14T11:56:41.950Z,10.91
2019-04-14T11:57:43.364Z,10.95
2019-04-14T11:58:44.799Z,10.87
2019-04-14T11:59:46.210Z,11.01
2019-04-14T12:00:47.597Z,11.05
2019-04-14T12:01:48.993Z,11.27
2019-04-14T12:02:50.417Z,11.42
2019-04-14T12:03:51.803Z,11.60
2019-04-14T12:04:53.196Z,11.60
2019-04-14T12:05:54.600Z,11.87
2019-04-14T12:06:56.002Z,11.96
2019-04-14T12:07:57.406Z,12.00
2019-04-14T12:08:58.807Z,12.12
2019-04-14T12:10:00.204Z,12.16
2019-04-14T12:11:01.606Z,12.21
2019-04-14T12:12:03.001Z,12.30
2019-04-14T12:13:04.394Z,12.44
2019-04-14T12:14:05.795Z,12.56
2019-04-14T12:15:07.686Z,12.55
2019-04-14T12:16:08.542Z,12.62
2019-04-14T12:17:09.944Z,12.71
2019-04-14T12:18:11.336Z,12.59
2019-04-14T12:19:12.753Z,12.61
2019-04-14T12:20:14.155Z,12.56
2019-04-14T12:21:15.555Z,12.43
2019-04-14T12:22:16.947Z,12.58
2019-04-14T12:23:18.339Z,12.58
2019-04-14T12:24:19.762Z,12.59
2019-04-14T12:25:21.177Z,12.41
2019-04-14T12:26:22.558Z,12.37
2019-04-14T12:27:23.959Z,12.26
2019-04-14T12:28:26.275Z,12.26
2019-04-14T12:29:26.707Z,12.30
2019-04-14T12:30:29.104Z,12.33
2019-04-14T12:31:29.467Z,12.30
2019-04-14T12:32:30.861Z,12.33
2019-04-14T12:33:32.257Z,12.25
2019-04-14T12:34:33.654Z,12.16
2019-04-14T12:35:35.051Z,12.13
2019-04-14T12:36:36.451Z,12.30
2019-04-14T12:37:37.848Z,12.25
2019-04-14T12:38:39.247Z,12.33
2019-04-14T12:39:40.639Z,12.29
2019-04-14T12:40:42.035Z,12.30
2019-04-14T12:41:44.185Z,12.16
2019-04-14T12:42:45.578Z,12.05
2019-04-14T12:43:46.973Z,12.03
2019-04-14T12:44:48.376Z,11.82
2019-04-14T12:45:49.770Z,11.90
2019-04-14T12:46:51.166Z,11.85
2019-04-14T12:47:52.559Z,11.85
2019-04-14T12:48:53.947Z,11.77
2019-04-14T12:49:55.348Z,11.62
2019-04-14T12:50:56.745Z,11.60
2019-04-14T12:51:58.147Z,11.63
2019-04-14T12:52:59.547Z,11.62
2019-04-14T12:54:00.943Z,11.54
2019-04-14T12:55:02.343Z,11.56
2019-04-14T12:56:03.731Z,11.45
2019-04-14T12:57:05.131Z,11.48
2019-04-14T12:58:06.534Z,11.51
2019-04-14T12:59:07.928Z,11.49
2019-04-14T13:00:09.323Z,11.49
2019-04-14T13:01:10.720Z,11.51
2019-04-14T13:02:12.137Z,11.49
2019-04-14T13:03:13.537Z,11.45
2019-04-14T13:04:14.946Z,11.51
2019-04-14T13:05:16.336Z,11.49
2019-04-14T13:06:17.733Z,11.46
2019-04-14T13:07:19.138Z,11.54
2019-04-14T13:08:20.534Z,11.49
2019-04-14T13:09:21.946Z,11.54
2019-04-14T13:10:23.340Z,11.51
2019-04-14T13:11:24.752Z,11.64
2019-04-14T13:12:26.148Z,11.66
2019-04-14T13:13:27.546Z,11.66
2019-04-14T13:14:28.942Z,11.67
2019-04-14T13:15:30.349Z,11.78
2019-04-14T13:16:31.736Z,11.81
2019-04-14T13:17:33.127Z,11.82
2019-04-14T13:18:34.521Z,11.75
2019-04-14T13:19:35.917Z,11.82
2019-04-14T13:20:37.312Z,11.88
2019-04-14T13:21:40.396Z,11.82
2019-04-14T13:22:40.068Z,11.82
2019-04-14T13:23:41.450Z,11.79
2019-04-14T13:24:42.846Z,11.81
2019-04-14T13:25:44.245Z,11.94
2019-04-14T13:26:46.184Z,11.98
2019-04-14T13:27:47.581Z,12.08
2019-04-14T13:28:48.986Z,12.04
2019-04-14T13:29:50.400Z,12.03
2019-04-14T13:30:51.802Z,12.07
2019-04-14T13:31:53.233Z,12.13
2019-04-14T13:32:54.621Z,12.13
2019-04-14T13:33:56.019Z,12.12
2019-04-14T13:34:57.405Z,12.37
2019-04-14T13:35:58.831Z,12.29
2019-04-14T13:37:00.209Z,12.31
2019-04-14T13:38:01.618Z,12.23
2019-04-14T13:39:03.019Z,12.30
2019-04-14T13:40:04.415Z,12.12
2019-04-14T13:41:05.813Z,12.16
2019-04-14T13:42:07.206Z,12.26
2019-04-14T13:43:08.609Z,12.40
2019-04-14T13:44:10.002Z,12.44
2019-04-14T13:45:11.404Z,12.44
2019-04-14T13:46:12.794Z,12.33
2019-04-14T13:47:14.192Z,12.25
2019-04-14T13:48:15.589Z,12.22